Blue Ridge, Texas
Current Conditions -  °F | °C
As of 5:53 AM on Sunday 21 Dec 2014 (Local Time) from KTKI Reporting Station
Overcast Overcast  
Wind Chill: 44°   Ceiling: 3100
Heat Index: 47°   Visibility: 8mi
Dew Point: 44°   Wind: 7mph
Humidity: 90%   Direction: 140°SE
Pressure: 30.11"   Gusts: NA
Location:  33.3°N, 96.4°W
Report Text: KTKI 211153Z 14006KT 8SM OVC031 08/07 A3011 RMK AO2 SLP205 T00830067 10083 20078 56013
Loading
Personal Weather Stations






























Interactive Weather Map New forecast layout! Learn more

10-Day Weather Forecast

Advertisements
Track Severe Weather on mobile